sensor_id;sensor_type;location;lat;lon;timestamp;P1;durP1;ratioP1;P2;durP2;ratioP2
41661;SDS011;27351;45.992;12.666;2023-05-29T00:58:27;6.13;;;2.90;;
41661;SDS011;27351;45.992;12.666;2023-05-29T01:00:53;7.20;;;3.15;;
41661;SDS011;27351;45.992;12.666;2023-05-29T01:03:18;7.68;;;3.30;;
41661;SDS011;27351;45.992;12.666;2023-05-29T01:10:36;7.10;;;3.23;;
41661;SDS011;27351;45.992;12.666;2023-05-29T01:54:41;7.85;;;3.45;;
41661;SDS011;27351;45.992;12.666;2023-05-29T02:06:49;7.80;;;3.50;;
41661;SDS011;27351;45.992;12.666;2023-05-29T02:09:16;7.25;;;3.10;;
41661;SDS011;27351;45.992;12.666;2023-05-29T02:11:42;6.50;;;2.90;;
41661;SDS011;27351;45.992;12.666;2023-05-29T02:14:11;5.97;;;3.17;;
41661;SDS011;27351;45.992;12.666;2023-05-29T02:16:37;7.05;;;3.25;;
41661;SDS011;27351;45.992;12.666;2023-05-29T02:19:06;7.10;;;3.43;;
41661;SDS011;27351;45.992;12.666;2023-05-29T02:21:33;6.60;;;3.30;;
41661;SDS011;27351;45.992;12.666;2023-05-29T02:23:58;7.87;;;3.73;;
41661;SDS011;27351;45.992;12.666;2023-05-29T02:26:23;7.63;;;3.37;;
41661;SDS011;27351;45.992;12.666;2023-05-29T02:28:49;8.27;;;3.27;;
41661;SDS011;27351;45.992;12.666;2023-05-29T02:31:15;7.97;;;3.90;;
41661;SDS011;27351;45.992;12.666;2023-05-29T02:33:40;7.65;;;3.60;;
41661;SDS011;27351;45.992;12.666;2023-05-29T02:36:06;6.27;;;3.37;;
41661;SDS011;27351;45.992;12.666;2023-05-29T02:38:35;8.80;;;3.70;;
41661;SDS011;27351;45.992;12.666;2023-05-29T02:41:01;7.43;;;3.45;;
41661;SDS011;27351;45.992;12.666;2023-05-29T02:43:26;6.67;;;3.33;;
41661;SDS011;27351;45.992;12.666;2023-05-29T02:45:53;7.78;;;3.65;;
41661;SDS011;27351;45.992;12.666;2023-05-29T02:48:21;7.18;;;3.25;;
41661;SDS011;27351;45.992;12.666;2023-05-29T02:50:47;8.17;;;3.60;;
41661;SDS011;27351;45.992;12.666;2023-05-29T02:53:13;6.83;;;3.50;;
41661;SDS011;27351;45.992;12.666;2023-05-29T02:55:38;7.40;;;3.17;;
41661;SDS011;27351;45.992;12.666;2023-05-29T02:58:04;8.13;;;3.60;;
41661;SDS011;27351;45.992;12.666;2023-05-29T03:00:30;7.95;;;4.03;;
41661;SDS011;27351;45.992;12.666;2023-05-29T03:02:57;7.72;;;3.50;;
41661;SDS011;27351;45.992;12.666;2023-05-29T03:05:22;7.10;;;3.45;;
41661;SDS011;27351;45.992;12.666;2023-05-29T03:07:48;8.07;;;3.70;;
41661;SDS011;27351;45.992;12.666;2023-05-29T03:10:13;7.40;;;3.63;;
41661;SDS011;27351;45.992;12.666;2023-05-29T03:12:42;6.55;;;2.80;;
41661;SDS011;27351;45.992;12.666;2023-05-29T03:15:10;8.15;;;3.67;;
41661;SDS011;27351;45.992;12.666;2023-05-29T03:17:36;8.55;;;3.83;;
41661;SDS011;27351;45.992;12.666;2023-05-29T03:20:05;8.50;;;4.00;;
41661;SDS011;27351;45.992;12.666;2023-05-29T03:22:31;7.93;;;3.60;;
41661;SDS011;27351;45.992;12.666;2023-05-29T03:24:57;7.88;;;3.97;;
41661;SDS011;27351;45.992;12.666;2023-05-29T03:27:23;9.68;;;4.93;;
41661;SDS011;27351;45.992;12.666;2023-05-29T03:29:58;8.95;;;4.40;;
41661;SDS011;27351;45.992;12.666;2023-05-29T03:32:24;8.95;;;4.20;;
41661;SDS011;27351;45.992;12.666;2023-05-29T03:34:50;10.18;;;4.15;;
41661;SDS011;27351;45.992;12.666;2023-05-29T03:37:15;9.57;;;4.22;;
41661;SDS011;27351;45.992;12.666;2023-05-29T03:39:41;7.78;;;3.85;;
41661;SDS011;27351;45.992;12.666;2023-05-29T03:42:08;9.45;;;4.28;;
41661;SDS011;27351;45.992;12.666;2023-05-29T03:44:34;7.53;;;3.73;;
41661;SDS011;27351;45.992;12.666;2023-05-29T03:47:00;7.57;;;3.60;;
41661;SDS011;27351;45.992;12.666;2023-05-29T03:49:26;10.77;;;4.40;;
41661;SDS011;27351;45.992;12.666;2023-05-29T03:51:51;8.03;;;3.80;;
41661;SDS011;27351;45.992;12.666;2023-05-29T03:54:17;8.27;;;3.87;;
41661;SDS011;27351;45.992;12.666;2023-05-29T03:56:44;11.40;;;4.57;;
41661;SDS011;27351;45.992;12.666;2023-05-29T03:59:12;8.60;;;4.18;;
41661;SDS011;27351;45.992;12.666;2023-05-29T04:01:37;8.00;;;4.20;;
41661;SDS011;27351;45.992;12.666;2023-05-29T04:04:03;8.57;;;3.90;;
41661;SDS011;27351;45.992;12.666;2023-05-29T04:06:28;8.30;;;4.17;;
41661;SDS011;27351;45.992;12.666;2023-05-29T04:08:55;7.90;;;3.88;;
41661;SDS011;27351;45.992;12.666;2023-05-29T04:11:21;8.70;;;4.40;;
41661;SDS011;27351;45.992;12.666;2023-05-29T04:13:47;8.95;;;4.30;;
41661;SDS011;27351;45.992;12.666;2023-05-29T04:25:54;7.68;;;3.65;;
41661;SDS011;27351;45.992;12.666;2023-05-29T04:28:25;8.73;;;4.60;;
41661;SDS011;27351;45.992;12.666;2023-05-29T04:30:53;9.13;;;3.70;;
41661;SDS011;27351;45.992;12.666;2023-05-29T04:33:21;7.20;;;2.90;;
41661;SDS011;27351;45.992;12.666;2023-05-29T04:35:50;9.00;;;3.28;;
41661;SDS011;27351;45.992;12.666;2023-05-29T04:38:16;7.68;;;3.30;;
41661;SDS011;27351;45.992;12.666;2023-05-29T04:40:43;7.13;;;3.50;;
41661;SDS011;27351;45.992;12.666;2023-05-29T04:43:12;7.70;;;3.50;;
41661;SDS011;27351;45.992;12.666;2023-05-29T04:46:10;9.93;;;3.22;;
41661;SDS011;27351;45.992;12.666;2023-05-29T04:48:38;7.17;;;3.13;;
41661;SDS011;27351;45.992;12.666;2023-05-29T04:51:07;6.60;;;3.03;;
41661;SDS011;27351;45.992;12.666;2023-05-29T04:53:37;8.88;;;3.45;;
41661;SDS011;27351;45.992;12.666;2023-05-29T04:56:03;6.68;;;3.05;;
41661;SDS011;27351;45.992;12.666;2023-05-29T04:58:29;7.40;;;3.13;;
41661;SDS011;27351;45.992;12.666;2023-05-29T05:00:55;7.03;;;3.00;;
41661;SDS011;27351;45.992;12.666;2023-05-29T05:03:24;8.60;;;3.30;;
41661;SDS011;27351;45.992;12.666;2023-05-29T05:05:50;9.35;;;3.40;;
41661;SDS011;27351;45.992;12.666;2023-05-29T05:08:17;8.00;;;3.47;;
41661;SDS011;27351;45.992;12.666;2023-05-29T05:10:43;7.72;;;4.30;;
41661;SDS011;27351;45.992;12.666;2023-05-29T05:13:09;7.82;;;3.40;;
41661;SDS011;27351;45.992;12.666;2023-05-29T05:15:36;8.10;;;3.10;;
41661;SDS011;27351;45.992;12.666;2023-05-29T05:18:03;7.13;;;3.47;;
41661;SDS011;27351;45.992;12.666;2023-05-29T05:20:29;7.75;;;2.95;;
41661;SDS011;27351;45.992;12.666;2023-05-29T05:22:58;7.70;;;3.25;;
41661;SDS011;27351;45.992;12.666;2023-05-29T05:25:25;7.75;;;3.42;;
41661;SDS011;27351;45.992;12.666;2023-05-29T05:27:51;7.43;;;3.33;;
41661;SDS011;27351;45.992;12.666;2023-05-29T05:30:19;6.57;;;3.30;;
41661;SDS011;27351;45.992;12.666;2023-05-29T05:32:45;13.18;;;2.90;;
41661;SDS011;27351;45.992;12.666;2023-05-29T05:35:10;8.10;;;3.07;;
41661;SDS011;27351;45.992;12.666;2023-05-29T05:37:37;7.38;;;2.85;;
41661;SDS011;27351;45.992;12.666;2023-05-29T05:40:03;8.32;;;2.92;;
41661;SDS011;27351;45.992;12.666;2023-05-29T05:42:30;8.05;;;3.38;;
41661;SDS011;27351;45.992;12.666;2023-05-29T05:45:06;8.80;;;3.53;;
41661;SDS011;27351;45.992;12.666;2023-05-29T05:47:32;7.25;;;2.78;;
41661;SDS011;27351;45.992;12.666;2023-05-29T05:49:58;7.03;;;2.77;;
41661;SDS011;27351;45.992;12.666;2023-05-29T05:52:24;8.83;;;2.63;;
41661;SDS011;27351;45.992;12.666;2023-05-29T05:54:51;6.93;;;3.10;;
41661;SDS011;27351;45.992;12.666;2023-05-29T05:57:17;8.38;;;3.20;;
41661;SDS011;27351;45.992;12.666;2023-05-29T05:59:42;9.65;;;3.50;;
41661;SDS011;27351;45.992;12.666;2023-05-29T06:02:08;6.37;;;2.80;;
41661;SDS011;27351;45.992;12.666;2023-05-29T06:04:34;7.50;;;3.40;;
41661;SDS011;27351;45.992;12.666;2023-05-29T06:06:59;7.67;;;3.03;;
41661;SDS011;27351;45.992;12.666;2023-05-29T06:09:25;7.18;;;2.70;;
41661;SDS011;27351;45.992;12.666;2023-05-29T06:11:52;5.93;;;2.67;;
41661;SDS011;27351;45.992;12.666;2023-05-29T06:14:19;7.70;;;2.83;;
41661;SDS011;27351;45.992;12.666;2023-05-29T06:16:45;5.33;;;2.67;;
41661;SDS011;27351;45.992;12.666;2023-05-29T06:19:11;6.57;;;2.80;;
41661;SDS011;27351;45.992;12.666;2023-05-29T06:21:50;7.28;;;2.85;;
41661;SDS011;27351;45.992;12.666;2023-05-29T06:24:16;8.20;;;3.03;;
41661;SDS011;27351;45.992;12.666;2023-05-29T06:26:41;5.60;;;2.87;;
41661;SDS011;27351;45.992;12.666;2023-05-29T06:29:09;6.07;;;2.80;;
41661;SDS011;27351;45.992;12.666;2023-05-29T06:31:35;5.30;;;2.83;;
41661;SDS011;27351;45.992;12.666;2023-05-29T06:34:01;7.97;;;3.20;;
41661;SDS011;27351;45.992;12.666;2023-05-29T06:36:26;6.68;;;2.97;;
41661;SDS011;27351;45.992;12.666;2023-05-29T06:38:52;8.37;;;3.60;;
41661;SDS011;27351;45.992;12.666;2023-05-29T06:41:18;7.30;;;3.20;;
41661;SDS011;27351;45.992;12.666;2023-05-29T06:43:43;7.63;;;3.38;;
41661;SDS011;27351;45.992;12.666;2023-05-29T06:46:09;8.63;;;3.20;;
41661;SDS011;27351;45.992;12.666;2023-05-29T06:48:35;9.10;;;3.58;;
41661;SDS011;27351;45.992;12.666;2023-05-29T06:51:01;6.03;;;3.10;;
41661;SDS011;27351;45.992;12.666;2023-05-29T06:53:46;7.83;;;3.20;;
41661;SDS011;27351;45.992;12.666;2023-05-29T06:56:13;6.65;;;3.28;;
41661;SDS011;27351;45.992;12.666;2023-05-29T06:58:38;8.13;;;3.28;;
41661;SDS011;27351;45.992;12.666;2023-05-29T07:01:05;7.97;;;3.20;;
41661;SDS011;27351;45.992;12.666;2023-05-29T07:03:31;9.43;;;3.10;;
41661;SDS011;27351;45.992;12.666;2023-05-29T07:05:57;6.30;;;2.90;;
41661;SDS011;27351;45.992;12.666;2023-05-29T07:08:23;7.47;;;3.38;;
41661;SDS011;27351;45.992;12.666;2023-05-29T07:10:50;8.07;;;2.80;;
41661;SDS011;27351;45.992;12.666;2023-05-29T07:13:17;7.63;;;3.33;;
41661;SDS011;27351;45.992;12.666;2023-05-29T07:15:43;7.33;;;3.13;;
41661;SDS011;27351;45.992;12.666;2023-05-29T07:18:10;11.35;;;3.85;;
41661;SDS011;27351;45.992;12.666;2023-05-29T07:20:36;6.50;;;3.20;;
41661;SDS011;27351;45.992;12.666;2023-05-29T07:23:02;8.45;;;3.22;;
41661;SDS011;27351;45.992;12.666;2023-05-29T07:25:29;7.53;;;3.23;;
41661;SDS011;27351;45.992;12.666;2023-05-29T07:27:55;5.85;;;2.83;;
41661;SDS011;27351;45.992;12.666;2023-05-29T07:30:20;7.47;;;3.22;;
41661;SDS011;27351;45.992;12.666;2023-05-29T07:32:47;7.70;;;3.10;;
41661;SDS011;27351;45.992;12.666;2023-05-29T07:35:12;7.30;;;3.58;;
41661;SDS011;27351;45.992;12.666;2023-05-29T07:37:38;6.43;;;2.77;;
41661;SDS011;27351;45.992;12.666;2023-05-29T07:40:04;5.93;;;2.97;;
41661;SDS011;27351;45.992;12.666;2023-05-29T07:42:58;9.43;;;3.00;;
41661;SDS011;27351;45.992;12.666;2023-05-29T07:45:33;8.02;;;3.05;;
41661;SDS011;27351;45.992;12.666;2023-05-29T07:47:59;5.82;;;3.08;;
41661;SDS011;27351;45.992;12.666;2023-05-29T07:50:26;6.45;;;2.88;;
41661;SDS011;27351;45.992;12.666;2023-05-29T07:52:52;7.65;;;3.03;;
41661;SDS011;27351;45.992;12.666;2023-05-29T07:55:18;6.90;;;3.17;;
41661;SDS011;27351;45.992;12.666;2023-05-29T07:57:44;8.63;;;3.13;;
41661;SDS011;27351;45.992;12.666;2023-05-29T08:00:10;7.63;;;3.33;;
41661;SDS011;27351;45.992;12.666;2023-05-29T08:02:44;6.60;;;3.10;;
41661;SDS011;27351;45.992;12.666;2023-05-29T08:05:33;7.60;;;3.08;;
41661;SDS011;27351;45.992;12.666;2023-05-29T08:08:04;7.90;;;3.00;;
41661;SDS011;27351;45.992;12.666;2023-05-29T08:10:32;6.65;;;2.92;;
41661;SDS011;27351;45.992;12.666;2023-05-29T08:12:58;5.88;;;2.72;;
41661;SDS011;27351;45.992;12.666;2023-05-29T08:15:23;6.60;;;2.90;;
41661;SDS011;27351;45.992;12.666;2023-05-29T08:17:51;7.18;;;2.90;;
41661;SDS011;27351;45.992;12.666;2023-05-29T08:20:17;7.65;;;3.25;;
41661;SDS011;27351;45.992;12.666;2023-05-29T08:22:42;10.95;;;3.22;;
41661;SDS011;27351;45.992;12.666;2023-05-29T08:25:08;6.80;;;3.40;;
41661;SDS011;27351;45.992;12.666;2023-05-29T08:27:34;8.50;;;3.00;;
41661;SDS011;27351;45.992;12.666;2023-05-29T10:04:43;7.30;;;3.20;;
41661;SDS011;27351;45.992;12.666;2023-05-29T10:07:27;5.55;;;2.75;;
41661;SDS011;27351;45.992;12.666;2023-05-29T10:10:00;5.80;;;2.60;;
41661;SDS011;27351;45.992;12.666;2023-05-29T10:12:27;6.93;;;3.35;;
41661;SDS011;27351;45.992;12.666;2023-05-29T10:14:56;7.60;;;3.10;;
41661;SDS011;27351;45.992;12.666;2023-05-29T10:17:24;6.57;;;2.57;;
41661;SDS011;27351;45.992;12.666;2023-05-29T10:19:53;6.53;;;2.90;;
41661;SDS011;27351;45.992;12.666;2023-05-29T10:22:20;6.40;;;2.60;;
41661;SDS011;27351;45.992;12.666;2023-05-29T10:24:48;7.85;;;2.90;;
41661;SDS011;27351;45.992;12.666;2023-05-29T10:27:13;7.00;;;3.20;;
41661;SDS011;27351;45.992;12.666;2023-05-29T10:29:47;8.30;;;3.33;;
41661;SDS011;27351;45.992;12.666;2023-05-29T10:34:55;7.70;;;3.33;;
41661;SDS011;27351;45.992;12.666;2023-05-29T10:39:47;9.60;;;3.00;;
41661;SDS011;27351;45.992;12.666;2023-05-29T10:44:58;5.65;;;2.70;;
41661;SDS011;27351;45.992;12.666;2023-05-29T10:47:23;8.00;;;3.55;;
41661;SDS011;27351;45.992;12.666;2023-05-29T10:49:49;7.93;;;2.60;;
41661;SDS011;27351;45.992;12.666;2023-05-29T10:52:16;7.70;;;2.90;;
41661;SDS011;27351;45.992;12.666;2023-05-29T10:54:50;7.50;;;2.90;;
41661;SDS011;27351;45.992;12.666;2023-05-29T10:57:17;6.97;;;3.00;;
41661;SDS011;27351;45.992;12.666;2023-05-29T11:02:08;7.65;;;2.95;;
41661;SDS011;27351;45.992;12.666;2023-05-29T11:04:34;7.50;;;2.95;;
41661;SDS011;27351;45.992;12.666;2023-05-29T11:07:00;6.05;;;2.60;;
41661;SDS011;27351;45.992;12.666;2023-05-29T11:09:30;7.18;;;3.17;;
41661;SDS011;27351;45.992;12.666;2023-05-29T11:12:15;7.85;;;2.80;;
41661;SDS011;27351;45.992;12.666;2023-05-29T11:14:56;6.40;;;2.65;;
41661;SDS011;27351;45.992;12.666;2023-05-29T11:17:32;9.13;;;3.05;;
41661;SDS011;27351;45.992;12.666;2023-05-29T11:20:02;7.97;;;2.63;;
41661;SDS011;27351;45.992;12.666;2023-05-29T11:22:33;6.80;;;3.07;;
41661;SDS011;27351;45.992;12.666;2023-05-29T11:25:05;7.15;;;3.20;;
41661;SDS011;27351;45.992;12.666;2023-05-29T11:27:32;6.77;;;2.90;;
41661;SDS011;27351;45.992;12.666;2023-05-29T11:29:58;6.60;;;2.73;;
41661;SDS011;27351;45.992;12.666;2023-05-29T11:32:24;6.25;;;2.80;;
41661;SDS011;27351;45.992;12.666;2023-05-29T11:34:53;6.85;;;2.65;;
41661;SDS011;27351;45.992;12.666;2023-05-29T11:37:21;7.00;;;2.73;;
